createdAt,value
2019-01-20T00:01:27.522Z,-1.36
2019-01-20T00:03:59.415Z,-1.35
2019-01-20T00:06:29.607Z,-1.23
2019-01-20T00:09:00.257Z,-1.10
2019-01-20T00:11:30.768Z,-1.04
2019-01-20T00:14:00.974Z,-0.94
2019-01-20T00:16:31.153Z,-0.88
2019-01-20T00:19:01.368Z,-0.94
2019-01-20T00:21:33.019Z,-0.96
2019-01-20T00:24:03.860Z,-1.03
2019-01-20T00:26:34.394Z,-1.00
2019-01-20T00:29:06.898Z,-0.97
2019-01-20T00:31:37.278Z,-0.97
2019-01-20T00:34:07.536Z,-1.03
2019-01-20T00:36:38.046Z,-0.95
2019-01-20T00:39:09.461Z,-0.94
2019-01-20T00:41:39.931Z,-0.96
2019-01-20T00:44:10.412Z,-0.97
2019-01-20T00:46:41.792Z,-1.02
2019-01-20T00:49:12.636Z,-1.09
2019-01-20T00:51:43.131Z,-1.14
2019-01-20T00:54:13.869Z,-1.16
2019-01-20T00:56:44.080Z,-1.19
2019-01-20T00:59:14.722Z,-1.27
2019-01-20T01:01:45.287Z,-1.31
2019-01-20T01:04:16.559Z,-1.43
2019-01-20T01:06:47.092Z,-1.46
2019-01-20T01:09:18.248Z,-1.41
2019-01-20T01:11:49.040Z,-1.48
2019-01-20T01:14:19.964Z,-1.47
2019-01-20T01:16:50.517Z,-1.58
2019-01-20T01:19:20.707Z,-1.63
2019-01-20T01:21:51.253Z,-1.68
2019-01-20T01:24:21.832Z,-1.78
2019-01-20T01:26:52.058Z,-1.78
2019-01-20T01:29:22.280Z,-1.78
2019-01-20T01:31:53.079Z,-1.72
2019-01-20T01:34:23.275Z,-1.74
2019-01-20T01:36:53.816Z,-1.71
2019-01-20T01:39:24.007Z,-1.63
2019-01-20T01:41:54.882Z,-1.56
2019-01-20T01:44:25.417Z,-1.48
2019-01-20T01:46:55.948Z,-1.40
2019-01-20T01:49:26.188Z,-1.33
2019-01-20T01:51:56.869Z,-1.23
2019-01-20T01:54:27.070Z,-1.10
2019-01-20T01:56:57.295Z,-1.05
2019-01-20T01:59:27.492Z,-0.93
2019-01-20T02:01:58.376Z,-0.92
2019-01-20T02:04:28.566Z,-0.92
2019-01-20T02:06:59.477Z,-0.92
2019-01-20T02:09:29.692Z,-0.96
2019-01-20T02:12:00.020Z,-1.01
2019-01-20T02:14:30.264Z,-1.07
2019-01-20T02:17:00.839Z,-1.12
2019-01-20T02:19:31.050Z,-1.15
2019-01-20T02:22:01.899Z,-1.23
2019-01-20T02:24:32.735Z,-1.23
2019-01-20T02:27:02.959Z,-1.25
2019-01-20T02:29:33.191Z,-1.39
2019-01-20T02:32:04.388Z,-1.42
2019-01-20T02:34:35.266Z,-1.42
2019-01-20T02:37:06.306Z,-1.35
2019-01-20T02:39:36.502Z,-1.43
2019-01-20T02:42:06.723Z,-1.47
2019-01-20T02:44:37.276Z,-1.56
2019-01-20T02:47:07.522Z,-1.58
2019-01-20T02:49:37.712Z,-1.69
2019-01-20T02:52:08.331Z,-1.79
2019-01-20T02:54:38.846Z,-1.89
2019-01-20T02:57:09.105Z,-1.97
2019-01-20T02:59:39.297Z,-2.00
2019-01-20T03:02:09.958Z,-2.01
2019-01-20T03:04:40.493Z,-2.00
2019-01-20T03:07:10.964Z,-2.00
2019-01-20T03:09:41.167Z,-2.08
2019-01-20T03:12:11.387Z,-2.19
2019-01-20T03:14:42.560Z,-2.25
2019-01-20T03:19:36.237Z,-2.35
2019-01-20T03:22:06.926Z,-2.32
2019-01-20T03:24:37.569Z,-2.36
2019-01-20T03:27:07.789Z,-2.34
2019-01-20T03:29:38.728Z,-2.34
2019-01-20T03:32:09.572Z,-2.38
2019-01-20T03:34:39.837Z,-2.37
2019-01-20T03:37:11.101Z,-2.34
2019-01-20T03:39:41.905Z,-2.41
2019-01-20T03:42:12.414Z,-2.43
2019-01-20T03:44:43.149Z,-2.36
2019-01-20T03:47:13.706Z,-2.39
2019-01-20T03:49:44.438Z,-2.39
2019-01-20T03:52:14.760Z,-2.45
2019-01-20T03:54:45.269Z,-2.48
2019-01-20T03:57:15.792Z,-2.55
2019-01-20T03:59:46.264Z,-2.57
2019-01-20T04:02:18.584Z,-2.59
2019-01-20T04:04:49.127Z,-2.60
2019-01-20T04:07:19.406Z,-2.70
2019-01-20T04:09:49.691Z,-2.70
2019-01-20T04:12:20.789Z,-2.71
2019-01-20T04:14:51.258Z,-2.73
2019-01-20T04:17:21.968Z,-2.78
2019-01-20T04:19:52.499Z,-2.80
2019-01-20T04:22:22.745Z,-2.85
2019-01-20T04:24:53.028Z,-2.84
2019-01-20T04:27:23.615Z,-2.79
2019-01-20T04:29:54.472Z,-2.81
2019-01-20T04:32:24.713Z,-2.87
2019-01-20T04:34:54.995Z,-2.89
2019-01-20T04:37:25.587Z,-2.93
2019-01-20T04:39:55.802Z,-3.06
2019-01-20T04:42:29.121Z,-3.01
2019-01-20T04:44:57.968Z,-3.05
2019-01-20T04:47:28.497Z,-3.09
2019-01-20T04:49:58.966Z,-3.08
2019-01-20T04:52:29.899Z,-3.08
2019-01-20T04:55:00.510Z,-3.02
2019-01-20T04:57:31.379Z,-2.91
2019-01-20T05:00:01.589Z,-2.99
2019-01-20T05:02:31.833Z,-2.91
2019-01-20T05:05:02.414Z,-2.79
2019-01-20T05:07:34.994Z,-2.86
2019-01-20T05:10:06.556Z,-2.79
2019-01-20T05:12:37.521Z,-2.72
2019-01-20T05:15:10.747Z,-2.69
2019-01-20T05:17:41.398Z,-2.72
2019-01-20T05:20:12.605Z,-2.65
2019-01-20T05:22:43.211Z,-2.57
2019-01-20T05:25:13.678Z,-2.36
2019-01-20T05:27:44.584Z,-2.11
2019-01-20T05:30:20.928Z,-1.99
2019-01-20T05:32:51.354Z,-1.92
2019-01-20T05:35:21.532Z,-1.89
2019-01-20T05:37:52.130Z,-1.85
2019-01-20T05:40:23.680Z,-1.81
2019-01-20T05:42:54.205Z,-1.77
2019-01-20T05:45:26.155Z,-1.77
2019-01-20T05:47:56.733Z,-1.80
2019-01-20T05:50:27.292Z,-1.77
2019-01-20T05:52:57.800Z,-1.84
2019-01-20T05:55:28.285Z,-1.83
2019-01-20T05:57:59.227Z,-1.89
2019-01-20T06:00:32.376Z,-1.94
2019-01-20T06:03:04.282Z,-1.97
2019-01-20T06:05:34.482Z,-1.98
2019-01-20T06:08:05.173Z,-1.96
2019-01-20T06:10:35.369Z,-1.93
2019-01-20T06:13:06.085Z,-1.91
2019-01-20T06:15:36.280Z,-1.88
2019-01-20T06:18:07.051Z,-1.87
2019-01-20T06:20:37.316Z,-1.84
2019-01-20T06:23:07.843Z,-1.81
2019-01-20T06:25:38.037Z,-1.69
2019-01-20T06:28:09.018Z,-1.62
2019-01-20T06:30:39.223Z,-1.58
2019-01-20T06:33:09.776Z,-1.55
2019-01-20T06:35:40.287Z,-1.49
2019-01-20T06:38:10.812Z,-1.45
2019-01-20T06:40:41.709Z,-1.48
2019-01-20T06:43:12.775Z,-1.48
2019-01-20T06:45:43.345Z,-1.39
2019-01-20T06:48:15.042Z,-1.35
2019-01-20T06:50:45.266Z,-1.33
2019-01-20T06:53:15.609Z,-1.32
2019-01-20T06:55:45.835Z,-1.28
2019-01-20T06:58:17.157Z,-1.26
2019-01-20T07:00:47.445Z,-1.22
2019-01-20T07:03:18.936Z,-1.22
2019-01-20T07:05:49.187Z,-1.23
2019-01-20T07:08:19.395Z,-1.22
2019-01-20T07:10:49.674Z,-1.20
2019-01-20T07:13:21.668Z,-1.20
2019-01-20T07:15:52.201Z,-1.19
2019-01-20T07:18:23.147Z,-1.16
2019-01-20T07:20:53.738Z,-1.12
2019-01-20T07:23:24.404Z,-1.02
2019-01-20T07:25:55.251Z,-0.96
2019-01-20T07:28:25.875Z,-0.91
2019-01-20T07:30:56.403Z,-0.92
2019-01-20T07:33:26.930Z,-0.84
2019-01-20T07:35:57.154Z,-0.80
2019-01-20T07:38:27.350Z,-0.73
2019-01-20T07:40:57.588Z,-0.69
2019-01-20T07:43:27.910Z,-0.59
2019-01-20T07:45:58.188Z,-0.53
2019-01-20T07:48:28.842Z,-0.50
2019-01-20T07:50:59.377Z,-0.44
2019-01-20T07:53:30.248Z,-0.42
2019-01-20T07:56:00.777Z,-0.40
2019-01-20T07:58:31.715Z,-0.31
2019-01-20T08:01:02.005Z,-0.27
2019-01-20T08:03:33.305Z,-0.23
2019-01-20T08:06:03.918Z,-0.20
2019-01-20T08:08:34.543Z,-0.18
2019-01-20T08:11:05.194Z,-0.13
2019-01-20T08:13:35.826Z,-0.08
2019-01-20T08:16:07.236Z,-0.03
2019-01-20T08:18:37.478Z,0.04
2019-01-20T08:21:08.103Z,0.04
2019-01-20T08:23:38.957Z,0.06
2019-01-20T08:26:09.347Z,0.10
2019-01-20T08:28:39.963Z,0.13
2019-01-20T08:31:11.991Z,0.15
2019-01-20T08:33:43.031Z,0.21
2019-01-20T08:36:14.109Z,0.27
2019-01-20T08:38:44.479Z,0.29
2019-01-20T08:41:15.277Z,0.27
2019-01-20T08:43:45.777Z,0.26
2019-01-20T08:47:00.764Z,0.37
2019-01-20T08:49:31.127Z,0.44
2019-01-20T08:52:03.127Z,0.54
2019-01-20T08:54:33.751Z,0.57
2019-01-20T08:57:04.071Z,0.65
2019-01-20T08:59:34.282Z,0.66
2019-01-20T09:02:04.722Z,0.68
2019-01-20T09:04:35.348Z,0.73
2019-01-20T09:07:05.746Z,0.83
2019-01-20T09:09:35.975Z,0.92
2019-01-20T09:12:06.298Z,0.95
2019-01-20T09:14:37.987Z,0.95
2019-01-20T09:17:08.277Z,0.93
2019-01-20T09:19:38.603Z,1.06
2019-01-20T09:22:09.179Z,1.16
2019-01-20T09:24:39.415Z,1.16
2019-01-20T09:27:09.730Z,1.23
2019-01-20T09:29:40.934Z,1.32
2019-01-20T09:32:11.693Z,1.53
2019-01-20T09:34:42.442Z,1.68
2019-01-20T09:37:14.289Z,1.79
2019-01-20T09:39:47.031Z,2.00
2019-01-20T09:42:19.211Z,2.13
2019-01-20T09:44:49.479Z,2.24
2019-01-20T09:47:20.305Z,2.35
2019-01-20T09:49:50.741Z,2.45
2019-01-20T09:52:21.326Z,2.56
2019-01-20T09:54:52.163Z,2.65
2019-01-20T09:57:22.767Z,2.70
2019-01-20T09:59:55.204Z,2.55
2019-01-20T10:02:26.747Z,2.70
2019-01-20T10:04:57.346Z,2.68
2019-01-20T10:07:30.468Z,2.76
2019-01-20T10:10:01.829Z,2.58
2019-01-20T10:12:32.108Z,2.64
2019-01-20T10:15:02.995Z,3.01
2019-01-20T10:17:34.215Z,3.22
2019-01-20T10:20:07.831Z,3.74
2019-01-20T10:22:38.315Z,4.04
2019-01-20T10:25:15.033Z,4.23
2019-01-20T10:27:45.200Z,4.22
2019-01-20T10:30:24.036Z,4.29
2019-01-20T10:32:55.697Z,4.31
2019-01-20T10:35:51.318Z,4.56
2019-01-20T10:38:22.096Z,4.40
2019-01-20T10:40:52.355Z,4.51
2019-01-20T10:43:25.248Z,4.72
2019-01-20T10:45:57.578Z,4.71
2019-01-20T10:48:27.836Z,4.28
2019-01-20T10:50:58.450Z,4.45
2019-01-20T10:53:29.052Z,4.51
2019-01-20T10:55:59.585Z,4.41
2019-01-20T10:58:29.988Z,4.72
2019-01-20T11:01:00.281Z,4.56
2019-01-20T11:03:30.671Z,4.41
2019-01-20T11:06:00.902Z,4.49
2019-01-20T11:08:31.217Z,4.42
2019-01-20T11:11:01.696Z,4.30
2019-01-20T11:13:31.935Z,4.43
2019-01-20T11:16:02.599Z,4.57
2019-01-20T11:18:32.938Z,4.76
2019-01-20T11:21:03.289Z,5.06
2019-01-20T11:23:33.941Z,5.27
2019-01-20T11:26:05.038Z,5.32
2019-01-20T11:28:36.406Z,5.51
2019-01-20T11:31:08.535Z,5.93
2019-01-20T11:33:39.179Z,5.87
2019-01-20T11:36:09.962Z,6.13
2019-01-20T11:38:41.231Z,6.33
2019-01-20T11:41:11.522Z,6.25
2019-01-20T11:43:41.836Z,6.23
2019-01-20T11:46:12.094Z,6.91
2019-01-20T11:48:42.793Z,7.25
2019-01-20T11:51:13.147Z,7.35
2019-01-20T11:53:44.622Z,7.31
2019-01-20T11:56:15.567Z,7.48
2019-01-20T11:58:45.915Z,7.65
2019-01-20T12:01:17.244Z,7.64
2019-01-20T12:03:48.178Z,7.75
2019-01-20T12:06:19.565Z,7.84
2019-01-20T12:08:50.156Z,7.45
2019-01-20T12:11:20.459Z,7.56
2019-01-20T12:13:51.027Z,6.59
2019-01-20T12:16:21.616Z,6.27
2019-01-20T12:18:52.490Z,6.10
2019-01-20T12:21:22.882Z,6.03
2019-01-20T12:23:53.552Z,5.60
2019-01-20T12:26:24.553Z,6.14
2019-01-20T12:28:54.774Z,6.56
2019-01-20T12:31:25.052Z,6.82
2019-01-20T12:33:57.510Z,6.40
2019-01-20T12:51:05.412Z,5.97
2019-01-20T12:53:36.440Z,5.85
2019-01-20T12:56:06.729Z,5.63
2019-01-20T12:58:37.328Z,5.83
2019-01-20T13:01:07.868Z,5.79
2019-01-20T13:03:38.811Z,5.81
2019-01-20T13:06:09.359Z,5.54
2019-01-20T13:08:40.030Z,5.41
2019-01-20T13:11:10.593Z,5.41
2019-01-20T13:13:41.128Z,5.23
2019-01-20T13:16:11.330Z,5.42
2019-01-20T13:18:42.178Z,5.17
2019-01-20T13:21:12.476Z,5.19
2019-01-20T13:23:43.036Z,5.13
2019-01-20T13:26:13.591Z,5.11
2019-01-20T13:28:44.109Z,5.09
2019-01-20T13:31:14.572Z,4.80
2019-01-20T13:33:44.776Z,4.62
2019-01-20T13:36:15.309Z,4.61
2019-01-20T13:38:45.909Z,4.82
2019-01-20T13:41:25.889Z,4.82
2019-01-20T13:43:57.660Z,4.73
2019-01-20T13:46:27.833Z,4.59
2019-01-20T13:48:58.058Z,4.51
2019-01-20T13:51:28.588Z,4.40
2019-01-20T13:53:59.115Z,4.48
2019-01-20T13:56:29.743Z,3.98
2019-01-20T13:58:59.943Z,4.18
2019-01-20T14:01:30.120Z,4.17
2019-01-20T14:04:00.741Z,4.13
2019-01-20T14:06:30.929Z,3.95
2019-01-20T14:09:01.167Z,3.96
2019-01-20T14:11:33.614Z,3.90
2019-01-20T14:14:04.489Z,3.84
2019-01-20T14:16:34.990Z,3.86
2019-01-20T14:19:05.607Z,3.81
2019-01-20T14:21:36.176Z,3.77
2019-01-20T14:24:06.385Z,3.66
2019-01-20T14:26:36.591Z,3.48
2019-01-20T14:29:07.147Z,3.45
2019-01-20T14:31:38.505Z,3.55
2019-01-20T14:34:08.790Z,3.48
2019-01-20T14:36:39.546Z,3.49
2019-01-20T14:39:13.475Z,3.46
2019-01-20T14:41:43.870Z,3.36
2019-01-20T14:44:14.424Z,3.39
2019-01-20T14:46:45.349Z,3.35
2019-01-20T14:49:15.582Z,3.23
2019-01-20T14:51:45.794Z,3.22
2019-01-20T14:54:16.742Z,3.05
2019-01-20T14:56:47.203Z,3.09
2019-01-20T14:59:17.412Z,2.88
2019-01-20T15:01:47.892Z,2.86
2019-01-20T15:04:18.454Z,2.68
2019-01-20T15:06:48.979Z,2.64
2019-01-20T15:09:19.833Z,2.46
2019-01-20T15:11:50.413Z,2.60
2019-01-20T15:14:20.620Z,2.36
2019-01-20T15:16:50.789Z,2.13
2019-01-20T15:19:21.881Z,2.06
2019-01-20T15:21:52.877Z,1.98
2019-01-20T15:24:23.394Z,1.96
2019-01-20T15:26:53.609Z,1.84
2019-01-20T15:29:24.472Z,1.78
2019-01-20T15:31:54.980Z,1.67
2019-01-20T15:34:25.505Z,1.51
2019-01-20T15:36:55.741Z,1.42
2019-01-20T15:39:26.587Z,1.34
2019-01-20T15:41:57.534Z,1.19
2019-01-20T15:44:28.041Z,1.16
2019-01-20T15:46:58.309Z,1.03
2019-01-20T15:49:28.549Z,1.02
2019-01-20T15:51:59.337Z,0.89
2019-01-20T15:54:29.575Z,0.78
2019-01-20T15:56:59.861Z,0.66
2019-01-20T15:59:30.150Z,0.59
2019-01-20T16:02:01.351Z,0.52
2019-01-20T16:04:32.289Z,0.43
2019-01-20T16:07:03.026Z,0.36
2019-01-20T16:09:33.658Z,0.25
2019-01-20T16:12:04.013Z,0.14
2019-01-20T16:14:34.915Z,0.08
2019-01-20T16:17:06.375Z,0.07
2019-01-20T16:19:37.203Z,0.05
2019-01-20T16:22:07.560Z,-0.02
2019-01-20T16:24:37.851Z,-0.12
2019-01-20T16:27:08.056Z,-0.10
2019-01-20T16:29:39.333Z,-0.16
2019-01-20T16:32:09.963Z,-0.22
2019-01-20T16:34:40.433Z,-0.30
2019-01-20T16:37:11.777Z,-0.35
2019-01-20T16:39:45.765Z,-0.29
2019-01-20T16:42:14.155Z,-0.30
2019-01-20T16:44:44.375Z,-0.35
2019-01-20T16:47:15.069Z,-0.34
2019-01-20T16:49:45.330Z,-0.29
2019-01-20T16:52:15.595Z,-0.35
2019-01-20T16:54:45.815Z,-0.41
2019-01-20T16:57:16.447Z,-0.48
2019-01-20T16:59:46.654Z,-0.54
2019-01-20T17:02:17.955Z,-0.61
2019-01-20T17:04:48.285Z,-0.58
2019-01-20T17:07:18.509Z,-0.60
2019-01-20T17:09:49.901Z,-0.61
2019-01-20T17:12:20.120Z,-0.57
2019-01-20T17:14:50.473Z,-0.49
2019-01-20T17:17:21.035Z,-0.47
2019-01-20T17:19:51.260Z,-0.41
2019-01-20T17:22:21.489Z,-0.34
2019-01-20T17:24:52.121Z,-0.36
2019-01-20T17:27:22.722Z,-0.36
2019-01-20T17:29:52.927Z,-0.39
2019-01-20T17:32:23.173Z,-0.44
2019-01-20T17:34:53.381Z,-0.45
2019-01-20T17:37:24.248Z,-0.46
2019-01-20T17:39:54.769Z,-0.47
2019-01-20T17:42:25.361Z,-0.47
2019-01-20T17:44:55.569Z,-0.46
2019-01-20T17:47:26.146Z,-0.50
2019-01-20T17:49:56.442Z,-0.54
2019-01-20T17:52:27.007Z,-0.50
2019-01-20T17:54:57.848Z,-0.49
2019-01-20T17:57:28.107Z,-0.46
2019-01-20T17:59:59.013Z,-0.38
2019-01-20T18:02:29.540Z,-0.36
2019-01-20T18:04:59.741Z,-0.29
2019-01-20T18:07:30.698Z,-0.29
2019-01-20T18:10:01.329Z,-0.27
2019-01-20T18:12:31.564Z,-0.22
2019-01-20T18:15:02.103Z,-0.23
2019-01-20T18:17:33.428Z,-0.24
2019-01-20T18:20:03.792Z,-0.15
2019-01-20T18:22:34.064Z,-0.13
2019-01-20T18:25:04.993Z,-0.11
2019-01-20T18:27:36.487Z,-0.06
2019-01-20T18:30:08.420Z,-0.02
2019-01-20T18:32:38.940Z,-0.01
2019-01-20T18:35:10.135Z,0.01
2019-01-20T18:37:40.733Z,0.02
2019-01-20T18:40:14.328Z,-0.04
2019-01-20T18:42:45.075Z,0.01
2019-01-20T18:45:17.478Z,-0.01
2019-01-20T18:47:47.786Z,-0.06
2019-01-20T18:50:23.887Z,-0.08
2019-01-20T18:52:54.223Z,-0.10
2019-01-20T18:55:25.205Z,-0.13
2019-01-20T18:57:55.571Z,-0.16
2019-01-20T19:00:46.226Z,-0.14
2019-01-20T19:03:18.841Z,-0.20
2019-01-20T19:05:49.368Z,-0.19
2019-01-20T19:08:20.626Z,-0.20
2019-01-20T19:10:51.122Z,-0.26
2019-01-20T19:13:21.645Z,-0.33
2019-01-20T19:15:52.872Z,-0.35
2019-01-20T19:18:23.114Z,-0.45
2019-01-20T19:20:53.668Z,-0.46
2019-01-20T19:23:24.476Z,-0.46
2019-01-20T19:25:55.767Z,-0.49
2019-01-20T19:28:26.002Z,-0.51
2019-01-20T19:30:56.503Z,-0.45
2019-01-20T19:33:27.399Z,-0.46
2019-01-20T19:35:58.095Z,-0.45
2019-01-20T19:38:28.805Z,-0.37
2019-01-20T19:40:59.620Z,-0.41
2019-01-20T19:43:30.920Z,-0.41
2019-01-20T19:46:01.833Z,-0.39
2019-01-20T19:48:32.091Z,-0.37
2019-01-20T19:51:03.546Z,-0.40
2019-01-20T19:53:33.805Z,-0.34
2019-01-20T19:56:05.257Z,-0.27
2019-01-20T19:58:35.486Z,-0.23
2019-01-20T20:01:05.713Z,-0.17
2019-01-20T20:03:36.266Z,-0.15
2019-01-20T20:06:07.920Z,-0.14
2019-01-20T20:08:38.545Z,-0.13
2019-01-20T20:11:09.520Z,-0.15
2019-01-20T20:13:40.432Z,-0.15
2019-01-20T20:16:11.030Z,-0.14
2019-01-20T20:18:41.706Z,-0.13
2019-01-20T20:21:12.214Z,-0.12
2019-01-20T20:23:42.744Z,-0.13
2019-01-20T20:26:12.985Z,-0.16
2019-01-20T20:28:43.908Z,-0.09
2019-01-20T20:31:14.163Z,-0.10
2019-01-20T20:33:44.866Z,-0.08
2019-01-20T20:36:15.600Z,-0.10
2019-01-20T20:38:46.234Z,-0.08
2019-01-20T20:41:18.675Z,-0.15
2019-01-20T20:43:50.084Z,-0.12
2019-01-20T20:46:20.786Z,-0.12
2019-01-20T20:48:51.103Z,-0.09
2019-01-20T20:51:21.303Z,-0.17
2019-01-20T20:53:52.175Z,-0.16
2019-01-20T20:56:22.701Z,-0.15
2019-01-20T20:58:53.390Z,-0.14
2019-01-20T21:01:23.625Z,-0.17
2019-01-20T21:03:56.055Z,-0.18
2019-01-20T21:06:26.334Z,-0.18
2019-01-20T21:08:56.882Z,-0.15
2019-01-20T21:11:27.828Z,-0.15
2019-01-20T21:13:58.036Z,-0.19
2019-01-20T21:16:28.572Z,-0.19
2019-01-20T21:18:58.777Z,-0.21
2019-01-20T21:21:29.326Z,-0.20
2019-01-20T21:23:59.530Z,-0.20
2019-01-20T21:26:29.760Z,-0.21
2019-01-20T21:29:00.028Z,-0.23
2019-01-20T21:31:30.248Z,-0.28
2019-01-20T21:34:00.469Z,-0.28
2019-01-20T21:36:32.819Z,-0.27
2019-01-20T21:39:03.418Z,-0.29
2019-01-20T21:41:34.998Z,-0.29
2019-01-20T21:44:05.708Z,-0.30
2019-01-20T21:46:36.269Z,-0.24
2019-01-20T21:49:06.476Z,-0.23
2019-01-20T21:51:37.907Z,-0.27
2019-01-20T21:54:08.109Z,-0.26
2019-01-20T21:56:41.245Z,-0.27
2019-01-20T21:59:11.440Z,-0.23
2019-01-20T22:01:41.684Z,-0.18
2019-01-20T22:04:12.981Z,-0.18
2019-01-20T22:06:44.147Z,-0.15
2019-01-20T22:09:14.377Z,-0.16
2019-01-20T22:11:45.356Z,-0.16
2019-01-20T22:14:15.876Z,-0.17
2019-01-20T22:16:52.635Z,-0.16
2019-01-20T22:19:18.995Z,-0.15
2019-01-20T22:21:49.295Z,-0.13
2019-01-20T22:24:19.539Z,-0.10
2019-01-20T22:26:50.179Z,-0.15
2019-01-20T22:29:20.423Z,-0.14
2019-01-20T22:31:50.711Z,-0.11
2019-01-20T22:34:21.217Z,-0.08
2019-01-20T22:36:51.452Z,-0.04
2019-01-20T22:39:22.017Z,-0.06
2019-01-20T22:41:52.765Z,-0.09
2019-01-20T22:44:23.020Z,-0.12
2019-01-20T22:46:59.879Z,-0.16
2019-01-20T22:49:25.563Z,-0.12
2019-01-20T22:51:55.842Z,-0.15
2019-01-20T22:54:26.428Z,-0.14
2019-01-20T22:56:57.345Z,-0.13
2019-01-20T22:59:28.274Z,-0.20
2019-01-20T23:01:58.567Z,-0.20
2019-01-20T23:04:29.142Z,-0.17
2019-01-20T23:06:59.395Z,-0.19
2019-01-20T23:09:29.601Z,-0.18
2019-01-20T23:12:00.222Z,-0.19
2019-01-20T23:14:30.837Z,-0.19
2019-01-20T23:17:07.499Z,-0.16
2019-01-20T23:19:32.967Z,-0.14
2019-01-20T23:22:03.561Z,-0.14
2019-01-20T23:24:33.769Z,-0.14
2019-01-20T23:27:04.067Z,-0.16
2019-01-20T23:29:34.350Z,-0.10
2019-01-20T23:32:04.578Z,-0.15
2019-01-20T23:34:34.789Z,-0.14
2019-01-20T23:37:05.397Z,-0.16
2019-01-20T23:39:35.595Z,-0.19
2019-01-20T23:42:05.816Z,-0.23
2019-01-20T23:44:36.034Z,-0.27
2019-01-20T23:47:06.604Z,-0.25
2019-01-20T23:49:36.796Z,-0.25
2019-01-20T23:52:07.059Z,-0.28
2019-01-20T23:54:37.306Z,-0.26
2019-01-20T23:57:07.546Z,-0.25
2019-01-20T23:59:38.428Z,-0.31
